createdAt,value
2018-05-21T00:01:58.002Z,13.70
2018-05-21T00:06:51.554Z,13.60
2018-05-21T00:11:45.032Z,13.50
2018-05-21T00:16:38.785Z,13.50
2018-05-21T00:21:33.761Z,13.30
2018-05-21T00:26:27.303Z,13.30
2018-05-21T00:31:20.759Z,13.30
2018-05-21T00:36:14.221Z,13.20
2018-05-21T00:41:07.681Z,13.10
2018-05-21T00:55:27.239Z,13.20
2018-05-21T01:00:20.712Z,13.00
2018-05-21T01:05:14.132Z,12.90
2018-05-21T01:10:07.744Z,13.00
2018-05-21T01:15:01.164Z,12.90
2018-05-21T01:19:54.588Z,12.90
2018-05-21T01:24:48.113Z,12.90
2018-05-21T01:29:41.603Z,12.90
2018-05-21T01:34:35.666Z,12.80
2018-05-21T01:39:29.099Z,12.70
2018-05-21T01:49:46.968Z,12.60
2018-05-21T01:54:40.545Z,12.40
2018-05-21T01:59:34.017Z,12.40
2018-05-21T02:04:27.487Z,12.40
2018-05-21T02:09:20.971Z,12.40
2018-05-21T02:14:14.370Z,12.30
2018-05-21T02:19:07.810Z,12.40
2018-05-21T02:24:01.240Z,12.20
2018-05-21T02:28:54.705Z,12.20
2018-05-21T02:33:48.147Z,12.20
2018-05-21T02:38:41.835Z,12.20
2018-05-21T02:43:35.275Z,12.30
2018-05-21T02:48:28.713Z,12.30
2018-05-21T02:53:23.018Z,12.40
2018-05-21T02:58:17.294Z,12.30
2018-05-21T03:03:10.844Z,12.30
2018-05-21T03:08:04.322Z,12.30
2018-05-21T03:12:57.733Z,12.30
2018-05-21T03:17:51.494Z,12.30
2018-05-21T03:22:46.377Z,12.20
2018-05-21T03:27:39.809Z,12.10
2018-05-21T03:32:33.287Z,12.20
2018-05-21T03:37:26.723Z,12.20
2018-05-21T03:42:20.987Z,12.30
2018-05-21T03:47:15.298Z,12.30
2018-05-21T03:52:09.507Z,12.30
2018-05-21T03:57:03.817Z,12.60
2018-05-21T04:02:14.772Z,12.60
2018-05-21T04:07:08.996Z,13.80
2018-05-21T04:12:02.527Z,13.70
2018-05-21T04:16:57.353Z,14.70
2018-05-21T04:21:51.363Z,15.90
2018-05-21T04:26:44.817Z,17.00
2018-05-21T04:31:38.217Z,17.40
2018-05-21T04:36:32.677Z,18.70
2018-05-21T04:41:26.051Z,19.90
2018-05-21T04:46:20.213Z,21.70
2018-05-21T04:51:13.566Z,21.60
2018-05-21T04:56:06.996Z,22.20
2018-05-21T05:01:00.847Z,22.70
2018-05-21T05:05:54.192Z,22.60
2018-05-21T05:10:47.752Z,23.20
2018-05-21T05:20:49.613Z,23.50
2018-05-21T05:25:43.028Z,23.20
2018-05-21T05:30:36.383Z,23.80
2018-05-21T05:35:30.008Z,24.00
2018-05-21T05:40:24.168Z,25.20
2018-05-21T05:45:18.353Z,24.40
2018-05-21T05:50:11.719Z,24.40
2018-05-21T05:55:05.130Z,23.90
2018-05-21T05:59:59.263Z,24.40
2018-05-21T06:04:52.643Z,24.30
2018-05-21T06:09:46.041Z,24.50
2018-05-21T06:14:40.434Z,25.00
2018-05-21T06:19:33.874Z,24.60
2018-05-21T06:24:27.259Z,24.10
2018-05-21T06:29:20.613Z,23.60
2018-05-21T06:34:14.058Z,23.80
2018-05-21T06:39:07.576Z,23.00
2018-05-21T06:44:00.980Z,23.20
2018-05-21T06:48:55.095Z,23.60
2018-05-21T06:53:48.469Z,23.60
2018-05-21T06:58:41.833Z,23.40
2018-05-21T07:03:35.598Z,22.30
2018-05-21T07:08:29.208Z,22.00
2018-05-21T07:13:23.537Z,21.90
2018-05-21T07:18:16.930Z,21.10
2018-05-21T07:23:11.532Z,21.10
2018-05-21T07:28:07.511Z,20.80
2018-05-21T07:33:00.988Z,21.00
2018-05-21T07:37:54.342Z,21.00
2018-05-21T07:42:47.706Z,20.80
2018-05-21T07:47:41.069Z,21.00
2018-05-21T07:52:34.657Z,20.90
2018-05-21T07:57:28.085Z,21.00
2018-05-21T08:02:22.267Z,21.10
2018-05-21T08:07:15.673Z,21.10
2018-05-21T08:12:09.056Z,20.20
2018-05-21T08:17:02.448Z,20.60
2018-05-21T08:21:55.815Z,21.20
2018-05-21T08:26:49.196Z,21.10
2018-05-21T08:31:42.602Z,21.60
2018-05-21T08:36:36.798Z,22.10
2018-05-21T08:41:30.166Z,22.10
2018-05-21T08:46:23.598Z,22.00
2018-05-21T08:51:17.081Z,22.10
2018-05-21T08:56:10.929Z,21.90
2018-05-21T09:01:04.535Z,22.20
2018-05-21T09:05:57.947Z,22.60
2018-05-21T09:10:51.331Z,22.80
2018-05-21T09:15:44.763Z,22.80
2018-05-21T09:20:38.972Z,22.50
2018-05-21T09:25:32.398Z,22.50
2018-05-21T09:30:25.764Z,22.30
2018-05-21T09:35:19.136Z,22.20
2018-05-21T09:40:12.538Z,21.70
2018-05-21T09:45:06.731Z,22.30
2018-05-21T09:50:01.112Z,22.70
2018-05-21T09:54:56.021Z,22.70
2018-05-21T09:59:49.412Z,23.20
2018-05-21T10:04:42.805Z,23.40
2018-05-21T10:09:36.834Z,23.10
2018-05-21T10:14:30.368Z,23.30
2018-05-21T10:19:23.776Z,23.60
2018-05-21T10:24:17.213Z,23.90
2018-05-21T10:29:10.593Z,24.20
2018-05-21T10:34:04.063Z,23.90
2018-05-21T10:38:57.465Z,24.50
2018-05-21T10:43:51.490Z,24.50
2018-05-21T10:48:44.810Z,24.40
2018-05-21T10:53:38.257Z,24.90
2018-05-21T10:58:31.659Z,25.30
2018-05-21T11:03:25.447Z,25.30
2018-05-21T11:08:18.837Z,24.80
2018-05-21T11:13:13.030Z,25.40
2018-05-21T11:18:07.312Z,25.40
2018-05-21T11:23:00.713Z,25.40
2018-05-21T11:27:54.309Z,25.70
2018-05-21T11:32:47.727Z,25.90
2018-05-21T11:37:41.127Z,25.90
2018-05-21T11:42:34.538Z,25.80
2018-05-21T11:47:27.908Z,25.70
2018-05-21T11:52:21.404Z,26.00
2018-05-21T11:57:14.835Z,25.90
2018-05-21T12:02:08.220Z,26.00
2018-05-21T12:07:01.621Z,26.20
2018-05-21T12:11:55.006Z,26.10
2018-05-21T12:16:49.253Z,26.20
2018-05-21T12:21:43.244Z,26.20
2018-05-21T12:26:36.698Z,25.90
2018-05-21T12:31:30.081Z,25.80
2018-05-21T12:36:24.554Z,26.20
2018-05-21T12:41:18.196Z,25.90
2018-05-21T12:46:12.382Z,26.30
2018-05-21T12:51:05.799Z,26.20
2018-05-21T12:55:59.249Z,25.90
2018-05-21T13:00:52.732Z,25.40
2018-05-21T13:05:46.475Z,25.50
2018-05-21T13:10:39.871Z,25.30
2018-05-21T13:15:34.177Z,25.50
2018-05-21T13:20:27.599Z,26.10
2018-05-21T13:25:21.807Z,25.50
2018-05-21T13:30:15.301Z,25.80
2018-05-21T13:35:09.094Z,25.10
2018-05-21T13:40:02.481Z,25.50
2018-05-21T13:44:55.950Z,25.80
2018-05-21T13:49:49.350Z,25.80
2018-05-21T13:54:43.865Z,26.00
2018-05-21T13:59:38.058Z,25.90
2018-05-21T14:04:31.471Z,25.90
2018-05-21T14:09:24.849Z,25.90
2018-05-21T14:14:18.223Z,25.80
2018-05-21T14:19:11.613Z,25.80
2018-05-21T14:24:05.044Z,25.10
2018-05-21T14:28:58.444Z,24.80
2018-05-21T14:33:51.836Z,24.70
2018-05-21T14:38:45.329Z,24.40
2018-05-21T14:52:48.058Z,24.80
2018-05-21T14:57:42.247Z,25.00
2018-05-21T15:02:36.638Z,24.60
2018-05-21T15:07:30.617Z,24.60
2018-05-21T15:12:24.636Z,24.70
2018-05-21T15:17:18.143Z,25.00
2018-05-21T15:22:11.779Z,25.10
2018-05-21T15:27:05.117Z,25.10
2018-05-21T15:31:59.671Z,24.90
2018-05-21T15:36:53.087Z,24.90
2018-05-21T15:41:46.570Z,24.80
2018-05-21T15:46:40.047Z,25.40
2018-05-21T15:51:34.001Z,25.90
2018-05-21T15:56:27.689Z,26.00
2018-05-21T16:01:21.096Z,26.10
2018-05-21T16:06:15.236Z,25.40
2018-05-21T16:11:08.679Z,25.40
2018-05-21T16:16:02.214Z,25.70
2018-05-21T16:20:55.655Z,25.70
2018-05-21T16:25:49.120Z,25.60
2018-05-21T16:30:42.582Z,25.40
2018-05-21T16:35:36.043Z,25.40
2018-05-21T16:40:29.472Z,25.40
2018-05-21T16:45:22.914Z,25.40
2018-05-21T16:50:17.601Z,25.30
2018-05-21T16:55:11.806Z,25.20
2018-05-21T17:00:05.349Z,25.10
2018-05-21T17:04:58.661Z,24.70
2018-05-21T17:09:52.851Z,24.30
2018-05-21T17:14:46.242Z,24.10
2018-05-21T17:19:40.418Z,23.10
2018-05-21T17:24:33.883Z,23.00
2018-05-21T17:29:27.604Z,22.90
2018-05-21T17:34:21.788Z,23.00
2018-05-21T17:39:15.949Z,23.10
2018-05-21T17:44:09.429Z,23.10
2018-05-21T17:49:02.827Z,23.00
2018-05-21T17:53:56.384Z,22.90
2018-05-21T17:58:49.900Z,22.70
2018-05-21T18:03:43.299Z,22.50
2018-05-21T18:08:36.681Z,22.40
2018-05-21T18:13:30.102Z,22.30
2018-05-21T18:18:23.547Z,21.90
2018-05-21T18:23:17.737Z,21.30
2018-05-21T18:28:11.934Z,21.00
2018-05-21T18:33:06.257Z,20.90
2018-05-21T18:37:59.659Z,20.80
2018-05-21T18:42:53.205Z,20.70
2018-05-21T18:47:46.598Z,20.70
2018-05-21T18:52:40.044Z,20.60
2018-05-21T18:57:33.490Z,20.60
2018-05-21T19:02:27.009Z,20.40
2018-05-21T19:07:21.539Z,20.30
2018-05-21T19:12:15.735Z,20.00
2018-05-21T19:17:09.158Z,20.00
2018-05-21T19:22:02.550Z,20.10
2018-05-21T19:26:55.985Z,20.00
2018-05-21T19:31:49.644Z,19.80
2018-05-21T19:36:43.820Z,19.80
2018-05-21T19:41:37.285Z,19.70
2018-05-21T19:46:30.714Z,19.80
2018-05-21T19:51:24.101Z,19.80
2018-05-21T19:56:17.698Z,19.80
2018-05-21T20:01:11.110Z,19.80
2018-05-21T20:06:04.559Z,20.00
2018-05-21T20:10:59.279Z,19.90
2018-05-21T20:15:52.750Z,19.90
2018-05-21T20:20:46.765Z,19.90
2018-05-21T20:25:40.171Z,19.80
2018-05-21T20:30:33.583Z,19.70
2018-05-21T20:35:26.997Z,19.60
2018-05-21T20:40:20.707Z,19.60
2018-05-21T20:45:14.986Z,19.50
2018-05-21T20:50:08.390Z,19.50
2018-05-21T20:55:02.182Z,19.50
2018-05-21T20:59:55.641Z,19.50
2018-05-21T21:04:49.430Z,19.30
2018-05-21T21:09:42.860Z,19.00
2018-05-21T21:14:36.278Z,18.90
2018-05-21T21:19:30.144Z,18.80
2018-05-21T21:24:23.587Z,18.70
2018-05-21T21:29:17.015Z,18.60
2018-05-21T21:34:10.423Z,18.50
2018-05-21T21:39:03.851Z,18.40
2018-05-21T21:43:57.268Z,18.10
2018-05-21T21:48:50.767Z,18.00
2018-05-21T21:53:44.136Z,17.90
2018-05-21T21:58:37.610Z,17.80
2018-05-21T22:03:32.654Z,17.70
2018-05-21T22:08:26.062Z,17.60
2018-05-21T22:13:19.480Z,17.50
2018-05-21T22:18:13.096Z,17.50
2018-05-21T22:23:06.483Z,17.30
2018-05-21T22:27:59.913Z,17.20
2018-05-21T22:32:53.303Z,17.10
2018-05-21T22:37:46.728Z,17.10
2018-05-21T22:42:41.005Z,17.10
2018-05-21T22:47:35.193Z,16.70
2018-05-21T22:52:29.333Z,16.60
2018-05-21T22:57:22.757Z,16.50
2018-05-21T23:02:16.259Z,16.50
2018-05-21T23:07:09.885Z,16.50
2018-05-21T23:12:03.292Z,16.40
2018-05-21T23:16:56.756Z,16.40
2018-05-21T23:21:50.163Z,16.30
2018-05-21T23:26:43.597Z,16.20
2018-05-21T23:31:37.067Z,16.10
2018-05-21T23:36:31.257Z,16.10
2018-05-21T23:41:24.732Z,16.10
2018-05-21T23:46:18.149Z,16.10
2018-05-21T23:51:11.576Z,15.90
2018-05-21T23:56:05.822Z,15.80
